Terminal Aerodrome Forecast
Issued by NWS

Home | Current Version | Previous Version | Text Only | Print | Product List | Glossary On
Versions: 1 2 3 4 5 6 7 8 9 10 11 12 13 14 15 16 17 18
000
FTUS46 KLOX 011100
TAFLGB
TAF
KLGB 011132Z 0112/0212 VRB03KT P6SM FEW025 BKN080
     FM011400 VRB03KT P6SM VCSH SCT025 BKN050
     FM011900 19006KT P6SM VCSH SCT025 BKN050
     FM012100 20008KT P6SM VCSH BKN025 OVC040
     FM020300 VRB03KT P6SM VCSH SCT025 BKN050
     FM020800 VRB03KT P6SM SCT050 BKN100=

USA.gov is the U.S. government's official web portal to all federal, state and local government web resources and services.